ウダーチヌイ の空港の天気 - METARとTAF

Polyarny ( UERP / PYJ ) - ロシア ウダーチヌイ
飛行場実況気象(Metar)
観測時間08/05 07:30 YAKT (08/04 22:30 UTC)
風向・風速不定 1m/s
視程10km以上
天気現象
全天の4割程度の雲 雲底高度 1310m
気温18℃
湿度49%
気圧1021hPa
METARUERP 042230Z VRB01MPS 9999 SCT043 18/07 Q1021 R35/090070 NOSIG RMK QFE722
過去の天気等 Google飛行場航空写真 Wunderground天気予報

過去48時間のMETAR

飛行場予報(TAF)
発表時間: 8/05 05:00 YAKT (8/04 20:00 UTC)
予報対象時間: 5日6時 YAKT ~ 6日6時 YAKT
風向・風速不定 1m/s
視程10km以上
全天の4割程度の雲 雲底高度 910m
TAF UERP 042000Z 0421/0521 VRB01MPS 9999 SCT030